Goldonna, Louisiana
Current Conditions -  °F | °C
As of 11:35 AM on Thursday 30 Oct 2014 (Local Time) from KIER Reporting Station
Clear Clear  
Wind Chill: 69°   Ceiling: Unl
Heat Index: 69°   Visibility: 10mi
Dew Point: 48°   Wind: 0mph
Humidity: 48%   Direction: NA
Pressure: 30.18"   Gusts: NA
Location:  32.02°N, 92.91°W
Report Text: KIER 301635Z AUTO 00000KT 10SM CLR 20/09 A3018 RMK AO2 T02040090
Loading
Personal Weather Stations






























Interactive Weather Map
Tropical Storm Tracking
New forecast layout! Learn more

10-Day Weather Forecast

Advertisements
Track Severe Weather on mobile